sensor_id;sensor_type;location;lat;lon;timestamp;temperature;humidity
8736;DHT22;4404;49.308;12.178;2022-09-09T00:01:31;16.80;99.90
8736;DHT22;4404;49.308;12.178;2022-09-09T00:07:43;16.70;99.90
8736;DHT22;4404;49.308;12.178;2022-09-09T00:13:52;16.70;99.90
8736;DHT22;4404;49.308;12.178;2022-09-09T00:20:00;16.70;99.90
8736;DHT22;4404;49.308;12.178;2022-09-09T00:26:11;16.60;99.90
8736;DHT22;4404;49.308;12.178;2022-09-09T00:32:19;16.70;99.90
8736;DHT22;4404;49.308;12.178;2022-09-09T00:38:25;16.70;99.90
8736;DHT22;4404;49.308;12.178;2022-09-09T00:44:31;16.60;99.90
8736;DHT22;4404;49.308;12.178;2022-09-09T00:50:44;16.60;99.90
8736;DHT22;4404;49.308;12.178;2022-09-09T00:57:03;16.60;99.90
8736;DHT22;4404;49.308;12.178;2022-09-09T01:03:21;16.50;99.90
8736;DHT22;4404;49.308;12.178;2022-09-09T01:09:32;16.40;99.90
8736;DHT22;4404;49.308;12.178;2022-09-09T01:15:39;16.40;99.90
8736;DHT22;4404;49.308;12.178;2022-09-09T01:21:50;16.40;99.90
8736;DHT22;4404;49.308;12.178;2022-09-09T01:28:03;16.50;99.90
8736;DHT22;4404;49.308;12.178;2022-09-09T01:34:11;16.40;99.90
8736;DHT22;4404;49.308;12.178;2022-09-09T01:40:14;16.40;99.90
8736;DHT22;4404;49.308;12.178;2022-09-09T01:46:19;16.40;99.90
8736;DHT22;4404;49.308;12.178;2022-09-09T01:52:23;16.30;99.90
8736;DHT22;4404;49.308;12.178;2022-09-09T01:58:40;16.20;99.90
8736;DHT22;4404;49.308;12.178;2022-09-09T02:04:49;16.20;99.90
8736;DHT22;4404;49.308;12.178;2022-09-09T02:10:56;16.10;99.90
8736;DHT22;4404;49.308;12.178;2022-09-09T02:17:06;16.10;99.90
8736;DHT22;4404;49.308;12.178;2022-09-09T02:23:13;16.10;99.90
8736;DHT22;4404;49.308;12.178;2022-09-09T02:29:20;16.10;99.90
8736;DHT22;4404;49.308;12.178;2022-09-09T02:35:25;16.00;99.90
8736;DHT22;4404;49.308;12.178;2022-09-09T02:41:33;15.90;99.90
8736;DHT22;4404;49.308;12.178;2022-09-09T02:47:39;15.90;99.90
8736;DHT22;4404;49.308;12.178;2022-09-09T02:53:50;15.80;99.90
8736;DHT22;4404;49.308;12.178;2022-09-09T02:59:59;15.70;99.90
8736;DHT22;4404;49.308;12.178;2022-09-09T03:06:02;15.90;99.90
8736;DHT22;4404;49.308;12.178;2022-09-09T03:12:06;15.90;99.90
8736;DHT22;4404;49.308;12.178;2022-09-09T03:18:10;15.80;99.90
8736;DHT22;4404;49.308;12.178;2022-09-09T03:24:12;15.80;99.90
8736;DHT22;4404;49.308;12.178;2022-09-09T03:30:16;15.80;99.90
8736;DHT22;4404;49.308;12.178;2022-09-09T03:36:19;15.80;99.90
8736;DHT22;4404;49.308;12.178;2022-09-09T03:42:23;15.90;99.90
8736;DHT22;4404;49.308;12.178;2022-09-09T03:48:26;15.80;99.90
8736;DHT22;4404;49.308;12.178;2022-09-09T03:54:30;15.80;99.90
8736;DHT22;4404;49.308;12.178;2022-09-09T04:00:33;16.40;99.90
8736;DHT22;4404;49.308;12.178;2022-09-09T04:06:35;15.70;99.90
8736;DHT22;4404;49.308;12.178;2022-09-09T04:12:39;15.70;99.90
8736;DHT22;4404;49.308;12.178;2022-09-09T04:18:41;15.70;99.90
8736;DHT22;4404;49.308;12.178;2022-09-09T04:24:44;15.80;99.90
8736;DHT22;4404;49.308;12.178;2022-09-09T04:30:48;15.70;99.90
8736;DHT22;4404;49.308;12.178;2022-09-09T04:36:50;15.70;99.90
8736;DHT22;4404;49.308;12.178;2022-09-09T04:42:53;15.50;99.90
8736;DHT22;4404;49.308;12.178;2022-09-09T04:48:57;15.50;99.90
8736;DHT22;4404;49.308;12.178;2022-09-09T04:54:59;15.50;99.90
8736;DHT22;4404;49.308;12.178;2022-09-09T05:01:06;15.60;99.90
8736;DHT22;4404;49.308;12.178;2022-09-09T05:07:10;15.60;99.90
8736;DHT22;4404;49.308;12.178;2022-09-09T05:13:15;15.60;99.90
8736;DHT22;4404;49.308;12.178;2022-09-09T05:19:17;15.80;99.90
8736;DHT22;4404;49.308;12.178;2022-09-09T05:25:21;15.90;99.90
8736;DHT22;4404;49.308;12.178;2022-09-09T05:31:25;15.80;99.90
8736;DHT22;4404;49.308;12.178;2022-09-09T05:37:28;15.90;99.90
8736;DHT22;4404;49.308;12.178;2022-09-09T05:43:34;15.90;99.90
8736;DHT22;4404;49.308;12.178;2022-09-09T05:49:36;15.90;99.90
8736;DHT22;4404;49.308;12.178;2022-09-09T05:55:38;15.90;99.90
8736;DHT22;4404;49.308;12.178;2022-09-09T06:01:42;15.90;99.90
8736;DHT22;4404;49.308;12.178;2022-09-09T06:07:46;16.00;99.90
8736;DHT22;4404;49.308;12.178;2022-09-09T06:13:48;16.10;99.90
8736;DHT22;4404;49.308;12.178;2022-09-09T06:19:54;16.10;99.90
8736;DHT22;4404;49.308;12.178;2022-09-09T06:26:04;16.20;99.90
8736;DHT22;4404;49.308;12.178;2022-09-09T06:32:07;16.30;99.90
8736;DHT22;4404;49.308;12.178;2022-09-09T06:38:11;16.40;99.90
8736;DHT22;4404;49.308;12.178;2022-09-09T06:44:13;16.50;99.90
8736;DHT22;4404;49.308;12.178;2022-09-09T06:50:16;16.50;99.90
8736;DHT22;4404;49.308;12.178;2022-09-09T06:56:21;16.50;99.90
8736;DHT22;4404;49.308;12.178;2022-09-09T07:02:25;16.50;99.90
8736;DHT22;4404;49.308;12.178;2022-09-09T07:08:27;16.20;99.90
8736;DHT22;4404;49.308;12.178;2022-09-09T07:14:31;16.20;99.90
8736;DHT22;4404;49.308;12.178;2022-09-09T07:20:34;16.30;99.90
8736;DHT22;4404;49.308;12.178;2022-09-09T07:26:38;16.40;99.90
8736;DHT22;4404;49.308;12.178;2022-09-09T07:32:42;16.60;99.90
8736;DHT22;4404;49.308;12.178;2022-09-09T07:38:46;16.70;99.90
8736;DHT22;4404;49.308;12.178;2022-09-09T07:44:50;16.70;99.90
8736;DHT22;4404;49.308;12.178;2022-09-09T07:51:05;16.80;99.90
8736;DHT22;4404;49.308;12.178;2022-09-09T07:57:09;16.90;99.90
8736;DHT22;4404;49.308;12.178;2022-09-09T08:03:11;17.00;99.90
8736;DHT22;4404;49.308;12.178;2022-09-09T08:09:15;17.20;99.90
8736;DHT22;4404;49.308;12.178;2022-09-09T08:15:17;17.30;99.90
8736;DHT22;4404;49.308;12.178;2022-09-09T08:21:21;17.30;99.90
8736;DHT22;4404;49.308;12.178;2022-09-09T08:27:26;17.30;99.90
8736;DHT22;4404;49.308;12.178;2022-09-09T08:33:29;17.30;99.90
8736;DHT22;4404;49.308;12.178;2022-09-09T08:39:31;17.20;99.90
8736;DHT22;4404;49.308;12.178;2022-09-09T08:45:47;17.40;99.90
8736;DHT22;4404;49.308;12.178;2022-09-09T08:51:53;17.30;99.90
8736;DHT22;4404;49.308;12.178;2022-09-09T08:58:00;17.30;99.90
8736;DHT22;4404;49.308;12.178;2022-09-09T09:10:47;17.20;99.90
8736;DHT22;4404;49.308;12.178;2022-09-09T09:16:53;17.30;99.90
8736;DHT22;4404;49.308;12.178;2022-09-09T09:23:02;17.40;99.90
8736;DHT22;4404;49.308;12.178;2022-09-09T09:29:09;17.40;99.90
8736;DHT22;4404;49.308;12.178;2022-09-09T09:35:13;17.40;99.90
8736;DHT22;4404;49.308;12.178;2022-09-09T09:41:29;17.70;99.90
8736;DHT22;4404;49.308;12.178;2022-09-09T09:47:32;17.80;99.90
8736;DHT22;4404;49.308;12.178;2022-09-09T09:53:36;18.00;99.90
8736;DHT22;4404;49.308;12.178;2022-09-09T09:59:41;18.40;99.90
8736;DHT22;4404;49.308;12.178;2022-09-09T10:05:46;18.70;99.90
8736;DHT22;4404;49.308;12.178;2022-09-09T10:11:55;18.80;99.90
8736;DHT22;4404;49.308;12.178;2022-09-09T10:18:13;18.80;99.90
8736;DHT22;4404;49.308;12.178;2022-09-09T10:31:27;18.90;99.90
8736;DHT22;4404;49.308;12.178;2022-09-09T10:37:44;18.80;99.90
8736;DHT22;4404;49.308;12.178;2022-09-09T10:44:06;18.90;99.90
8736;DHT22;4404;49.308;12.178;2022-09-09T10:50:34;18.90;99.90
8736;DHT22;4404;49.308;12.178;2022-09-09T10:56:51;19.30;99.90
8736;DHT22;4404;49.308;12.178;2022-09-09T11:03:00;19.50;99.90
8736;DHT22;4404;49.308;12.178;2022-09-09T11:09:04;19.80;99.90
8736;DHT22;4404;49.308;12.178;2022-09-09T11:15:15;20.30;99.90
8736;DHT22;4404;49.308;12.178;2022-09-09T11:21:25;20.60;99.90
8736;DHT22;4404;49.308;12.178;2022-09-09T11:27:35;21.00;99.90
8736;DHT22;4404;49.308;12.178;2022-09-09T11:33:58;21.10;99.80
8736;DHT22;4404;49.308;12.178;2022-09-09T11:40:15;21.40;99.00
8736;DHT22;4404;49.308;12.178;2022-09-09T11:46:22;21.30;97.90
8736;DHT22;4404;49.308;12.178;2022-09-09T11:52:39;21.40;97.70
8736;DHT22;4404;49.308;12.178;2022-09-09T11:58:53;21.40;98.00
8736;DHT22;4404;49.308;12.178;2022-09-09T12:05:00;21.60;96.90
8736;DHT22;4404;49.308;12.178;2022-09-09T12:11:07;21.50;97.30
8736;DHT22;4404;49.308;12.178;2022-09-09T12:17:27;21.20;96.10
8736;DHT22;4404;49.308;12.178;2022-09-09T12:23:37;21.00;97.70
8736;DHT22;4404;49.308;12.178;2022-09-09T12:29:50;21.10;97.70
8736;DHT22;4404;49.308;12.178;2022-09-09T12:35:59;21.10;97.50
8736;DHT22;4404;49.308;12.178;2022-09-09T12:42:02;21.20;97.40
8736;DHT22;4404;49.308;12.178;2022-09-09T12:48:07;21.30;96.80
8736;DHT22;4404;49.308;12.178;2022-09-09T12:54:13;21.10;96.00
8736;DHT22;4404;49.308;12.178;2022-09-09T13:00:18;21.00;96.00
8736;DHT22;4404;49.308;12.178;2022-09-09T13:06:25;20.80;96.00
8736;DHT22;4404;49.308;12.178;2022-09-09T13:12:29;20.90;97.40
8736;DHT22;4404;49.308;12.178;2022-09-09T13:18:34;21.30;96.90
8736;DHT22;4404;49.308;12.178;2022-09-09T13:24:40;21.40;96.80
8736;DHT22;4404;49.308;12.178;2022-09-09T13:30:43;21.30;97.60
8736;DHT22;4404;49.308;12.178;2022-09-09T13:36:48;21.40;97.80
8736;DHT22;4404;49.308;12.178;2022-09-09T13:42:55;21.40;97.40
8736;DHT22;4404;49.308;12.178;2022-09-09T13:48:59;21.20;98.10
8736;DHT22;4404;49.308;12.178;2022-09-09T13:55:03;20.90;98.50
8736;DHT22;4404;49.308;12.178;2022-09-09T14:01:08;20.80;99.30
8736;DHT22;4404;49.308;12.178;2022-09-09T14:07:14;20.80;99.90
8736;DHT22;4404;49.308;12.178;2022-09-09T14:13:19;20.80;99.90
8736;DHT22;4404;49.308;12.178;2022-09-09T14:19:24;21.20;99.90
8736;DHT22;4404;49.308;12.178;2022-09-09T14:25:26;21.20;99.80
8736;DHT22;4404;49.308;12.178;2022-09-09T14:31:30;20.90;99.90
8736;DHT22;4404;49.308;12.178;2022-09-09T14:37:34;20.80;99.90
8736;DHT22;4404;49.308;12.178;2022-09-09T14:43:37;20.80;99.90
8736;DHT22;4404;49.308;12.178;2022-09-09T14:49:40;21.10;99.90
8736;DHT22;4404;49.308;12.178;2022-09-09T14:55:43;21.20;99.90
8736;DHT22;4404;49.308;12.178;2022-09-09T15:01:47;21.30;99.90
8736;DHT22;4404;49.308;12.178;2022-09-09T15:07:49;21.40;99.00
8736;DHT22;4404;49.308;12.178;2022-09-09T15:13:54;21.50;99.30
8736;DHT22;4404;49.308;12.178;2022-09-09T15:19:56;21.50;98.10
8736;DHT22;4404;49.308;12.178;2022-09-09T15:25:59;21.40;99.00
8736;DHT22;4404;49.308;12.178;2022-09-09T15:32:03;21.30;99.10
8736;DHT22;4404;49.308;12.178;2022-09-09T15:38:05;21.00;99.20
8736;DHT22;4404;49.308;12.178;2022-09-09T15:44:08;20.90;99.10
8736;DHT22;4404;49.308;12.178;2022-09-09T15:50:14;20.80;99.30
8736;DHT22;4404;49.308;12.178;2022-09-09T15:56:16;20.70;98.80
8736;DHT22;4404;49.308;12.178;2022-09-09T16:02:19;20.80;99.00
8736;DHT22;4404;49.308;12.178;2022-09-09T16:08:22;20.80;99.20
8736;DHT22;4404;49.308;12.178;2022-09-09T16:14:25;20.80;98.90
8736;DHT22;4404;49.308;12.178;2022-09-09T16:20:27;20.80;99.80
8736;DHT22;4404;49.308;12.178;2022-09-09T16:26:33;20.70;94.00
8736;DHT22;4404;49.308;12.178;2022-09-09T16:32:37;20.40;95.70
8736;DHT22;4404;49.308;12.178;2022-09-09T16:38:39;20.20;98.00
8736;DHT22;4404;49.308;12.178;2022-09-09T17:03:21;19.30;98.60
8736;DHT22;4404;49.308;12.178;2022-09-09T17:09:26;18.60;99.90
8736;DHT22;4404;49.308;12.178;2022-09-09T17:15:31;18.10;99.90
8736;DHT22;4404;49.308;12.178;2022-09-09T17:21:36;17.80;99.90
8736;DHT22;4404;49.308;12.178;2022-09-09T17:27:39;17.80;99.90
8736;DHT22;4404;49.308;12.178;2022-09-09T17:33:42;17.70;99.90
8736;DHT22;4404;49.308;12.178;2022-09-09T17:39:54;17.70;99.90
8736;DHT22;4404;49.308;12.178;2022-09-09T17:46:05;17.60;99.90
8736;DHT22;4404;49.308;12.178;2022-09-09T17:52:21;17.40;99.90
8736;DHT22;4404;49.308;12.178;2022-09-09T17:58:39;17.30;99.90
8736;DHT22;4404;49.308;12.178;2022-09-09T18:04:52;17.00;99.90
8736;DHT22;4404;49.308;12.178;2022-09-09T18:11:09;17.00;99.90
8736;DHT22;4404;49.308;12.178;2022-09-09T18:17:21;17.00;99.90
8736;DHT22;4404;49.308;12.178;2022-09-09T18:23:24;16.90;99.90
8736;DHT22;4404;49.308;12.178;2022-09-09T18:29:27;16.70;99.90
8736;DHT22;4404;49.308;12.178;2022-09-09T18:42:48;16.40;99.90
8736;DHT22;4404;49.308;12.178;2022-09-09T18:48:52;16.50;99.90
8736;DHT22;4404;49.308;12.178;2022-09-09T18:54:57;16.30;99.90
8736;DHT22;4404;49.308;12.178;2022-09-09T19:01:03;16.20;99.90
8736;DHT22;4404;49.308;12.178;2022-09-09T19:07:10;16.30;99.90
8736;DHT22;4404;49.308;12.178;2022-09-09T19:13:13;16.30;99.90
8736;DHT22;4404;49.308;12.178;2022-09-09T19:19:20;16.20;99.90
8736;DHT22;4404;49.308;12.178;2022-09-09T19:25:25;16.10;99.90
8736;DHT22;4404;49.308;12.178;2022-09-09T19:31:46;16.20;99.90
8736;DHT22;4404;49.308;12.178;2022-09-09T19:37:50;16.00;99.90
8736;DHT22;4404;49.308;12.178;2022-09-09T19:43:56;16.10;99.90
8736;DHT22;4404;49.308;12.178;2022-09-09T19:50:01;15.90;99.90
8736;DHT22;4404;49.308;12.178;2022-09-09T19:56:07;15.80;99.90
8736;DHT22;4404;49.308;12.178;2022-09-09T20:02:11;15.80;99.90
8736;DHT22;4404;49.308;12.178;2022-09-09T20:15:32;15.80;99.90
8736;DHT22;4404;49.308;12.178;2022-09-09T20:21:36;15.70;99.90
8736;DHT22;4404;49.308;12.178;2022-09-09T20:27:40;15.80;99.90
8736;DHT22;4404;49.308;12.178;2022-09-09T20:33:45;15.80;99.90
8736;DHT22;4404;49.308;12.178;2022-09-09T20:39:51;15.70;99.90
8736;DHT22;4404;49.308;12.178;2022-09-09T20:45:55;15.70;99.90
8736;DHT22;4404;49.308;12.178;2022-09-09T20:52:26;15.70;99.90
8736;DHT22;4404;49.308;12.178;2022-09-09T20:58:30;15.80;99.90
8736;DHT22;4404;49.308;12.178;2022-09-09T21:04:34;15.80;99.90
8736;DHT22;4404;49.308;12.178;2022-09-09T21:10:43;15.80;99.90
8736;DHT22;4404;49.308;12.178;2022-09-09T21:16:46;15.70;99.90
8736;DHT22;4404;49.308;12.178;2022-09-09T21:22:49;15.80;99.90
8736;DHT22;4404;49.308;12.178;2022-09-09T21:28:53;15.50;99.90
8736;DHT22;4404;49.308;12.178;2022-09-09T21:41:45;15.50;99.90
8736;DHT22;4404;49.308;12.178;2022-09-09T21:47:51;15.60;99.90
8736;DHT22;4404;49.308;12.178;2022-09-09T21:53:56;15.50;99.90
8736;DHT22;4404;49.308;12.178;2022-09-09T21:59:58;15.50;99.90
8736;DHT22;4404;49.308;12.178;2022-09-09T22:06:04;15.60;99.90
8736;DHT22;4404;49.308;12.178;2022-09-09T22:12:08;15.60;99.90
8736;DHT22;4404;49.308;12.178;2022-09-09T22:18:12;15.60;99.90
8736;DHT22;4404;49.308;12.178;2022-09-09T22:24:17;15.60;99.90
8736;DHT22;4404;49.308;12.178;2022-09-09T22:30:19;15.70;99.90
8736;DHT22;4404;49.308;12.178;2022-09-09T22:43:40;15.60;99.90
8736;DHT22;4404;49.308;12.178;2022-09-09T22:56:59;15.60;99.90
8736;DHT22;4404;49.308;12.178;2022-09-09T23:03:03;15.60;99.90
8736;DHT22;4404;49.308;12.178;2022-09-09T23:16:24;15.50;99.90
8736;DHT22;4404;49.308;12.178;2022-09-09T23:22:29;15.30;99.90
8736;DHT22;4404;49.308;12.178;2022-09-09T23:28:35;15.10;99.90
8736;DHT22;4404;49.308;12.178;2022-09-09T23:34:43;15.20;99.90
8736;DHT22;4404;49.308;12.178;2022-09-09T23:47:51;15.10;99.90
8736;DHT22;4404;49.308;12.178;2022-09-09T23:54:00;15.20;99.90
